Terminal Aerodrome Forecast
Issued by NWS Sioux Falls, SD

Home | Current Version | Previous Version | Graphics & Text | Print | Product List | Glossary On
Versions: 1 2 3 4 5 6 7 8 9 10 11 12 13 14 15 16 17 18 19 20 21 22 23 24 25 26 27 28 29 30 31 32 33 34 35 36 37
000
FTUS43 KFSD 262322
TAFSUX
TAF
KSUX 262322Z 2700/2724 15009KT P6SM FEW150
     FM270300 12006KT P6SM SCT150
     FM271000 14010KT P6SM BKN150
     FM271400 15013G18KT P6SM BKN200
     FM271900 15015G22KT P6SM SCT035=

USA.gov is the U.S. government's official web portal to all federal, state and local government web resources and services.